sensor_id;sensor_type;location;lat;lon;timestamp;P1;durP1;ratioP1;P2;durP2;ratioP2
64335;SDS011;50672;53.362;-6.240;2022-07-23T00:00:16;4.27;;;2.03;;
64335;SDS011;50672;53.362;-6.240;2022-07-23T00:02:44;4.03;;;1.70;;
64335;SDS011;50672;53.362;-6.240;2022-07-23T00:05:11;4.00;;;1.90;;
64335;SDS011;50672;53.362;-6.240;2022-07-23T00:07:39;4.40;;;1.70;;
64335;SDS011;50672;53.362;-6.240;2022-07-23T00:10:06;3.47;;;1.80;;
64335;SDS011;50672;53.362;-6.240;2022-07-23T00:12:33;1.97;;;1.70;;
64335;SDS011;50672;53.362;-6.240;2022-07-23T00:15:00;4.60;;;2.20;;
64335;SDS011;50672;53.362;-6.240;2022-07-23T00:17:30;2.77;;;1.80;;
64335;SDS011;50672;53.362;-6.240;2022-07-23T00:19:57;2.60;;;1.63;;
64335;SDS011;50672;53.362;-6.240;2022-07-23T00:22:24;3.57;;;1.80;;
64335;SDS011;50672;53.362;-6.240;2022-07-23T00:24:51;4.57;;;1.93;;
64335;SDS011;50672;53.362;-6.240;2022-07-23T00:27:38;2.93;;;1.83;;
64335;SDS011;50672;53.362;-6.240;2022-07-23T00:30:05;4.20;;;2.03;;
64335;SDS011;50672;53.362;-6.240;2022-07-23T00:32:44;4.70;;;2.27;;
64335;SDS011;50672;53.362;-6.240;2022-07-23T00:35:21;2.77;;;1.53;;
64335;SDS011;50672;53.362;-6.240;2022-07-23T00:37:50;4.00;;;2.00;;
64335;SDS011;50672;53.362;-6.240;2022-07-23T00:40:17;2.47;;;1.37;;
64335;SDS011;50672;53.362;-6.240;2022-07-23T00:42:44;3.23;;;1.83;;
64335;SDS011;50672;53.362;-6.240;2022-07-23T00:45:11;3.53;;;1.37;;
64335;SDS011;50672;53.362;-6.240;2022-07-23T00:47:38;3.27;;;1.00;;
64335;SDS011;50672;53.362;-6.240;2022-07-23T00:50:06;1.30;;;1.07;;
64335;SDS011;50672;53.362;-6.240;2022-07-23T00:52:34;1.53;;;1.03;;
64335;SDS011;50672;53.362;-6.240;2022-07-23T00:55:03;2.23;;;0.90;;
64335;SDS011;50672;53.362;-6.240;2022-07-23T00:57:30;1.10;;;0.80;;
64335;SDS011;50672;53.362;-6.240;2022-07-23T00:59:58;2.23;;;1.30;;
64335;SDS011;50672;53.362;-6.240;2022-07-23T01:02:26;2.30;;;1.37;;
64335;SDS011;50672;53.362;-6.240;2022-07-23T01:04:53;2.93;;;1.10;;
64335;SDS011;50672;53.362;-6.240;2022-07-23T01:07:20;1.47;;;1.00;;
64335;SDS011;50672;53.362;-6.240;2022-07-23T01:09:48;2.30;;;1.23;;
64335;SDS011;50672;53.362;-6.240;2022-07-23T01:12:15;3.93;;;1.47;;
64335;SDS011;50672;53.362;-6.240;2022-07-23T01:14:42;1.80;;;1.40;;
64335;SDS011;50672;53.362;-6.240;2022-07-23T01:17:09;0.97;;;0.90;;
64335;SDS011;50672;53.362;-6.240;2022-07-23T01:19:36;1.13;;;1.03;;
64335;SDS011;50672;53.362;-6.240;2022-07-23T01:22:03;1.53;;;1.00;;
64335;SDS011;50672;53.362;-6.240;2022-07-23T01:24:31;1.60;;;1.30;;
64335;SDS011;50672;53.362;-6.240;2022-07-23T01:26:57;1.33;;;1.03;;
64335;SDS011;50672;53.362;-6.240;2022-07-23T01:29:24;1.27;;;0.90;;
64335;SDS011;50672;53.362;-6.240;2022-07-23T01:31:51;1.37;;;1.20;;
64335;SDS011;50672;53.362;-6.240;2022-07-23T01:34:18;1.33;;;1.00;;
64335;SDS011;50672;53.362;-6.240;2022-07-23T01:36:44;1.30;;;1.03;;
64335;SDS011;50672;53.362;-6.240;2022-07-23T01:39:12;2.53;;;1.00;;
64335;SDS011;50672;53.362;-6.240;2022-07-23T01:41:39;1.83;;;1.03;;
64335;SDS011;50672;53.362;-6.240;2022-07-23T01:44:09;2.07;;;1.10;;
64335;SDS011;50672;53.362;-6.240;2022-07-23T01:46:37;1.70;;;1.30;;
64335;SDS011;50672;53.362;-6.240;2022-07-23T01:49:05;1.50;;;1.40;;
64335;SDS011;50672;53.362;-6.240;2022-07-23T01:51:32;2.13;;;1.10;;
64335;SDS011;50672;53.362;-6.240;2022-07-23T01:53:59;1.50;;;1.40;;
64335;SDS011;50672;53.362;-6.240;2022-07-23T01:56:26;2.13;;;1.30;;
64335;SDS011;50672;53.362;-6.240;2022-07-23T01:58:52;2.33;;;1.40;;
64335;SDS011;50672;53.362;-6.240;2022-07-23T02:01:19;2.97;;;2.07;;
64335;SDS011;50672;53.362;-6.240;2022-07-23T02:03:46;1.77;;;1.40;;
64335;SDS011;50672;53.362;-6.240;2022-07-23T02:06:13;2.00;;;1.30;;
64335;SDS011;50672;53.362;-6.240;2022-07-23T02:08:40;3.87;;;1.37;;
64335;SDS011;50672;53.362;-6.240;2022-07-23T02:11:08;1.30;;;1.20;;
64335;SDS011;50672;53.362;-6.240;2022-07-23T02:13:35;2.10;;;1.30;;
64335;SDS011;50672;53.362;-6.240;2022-07-23T02:16:02;1.60;;;1.20;;
64335;SDS011;50672;53.362;-6.240;2022-07-23T02:18:29;2.50;;;1.33;;
64335;SDS011;50672;53.362;-6.240;2022-07-23T02:20:56;1.30;;;1.20;;
64335;SDS011;50672;53.362;-6.240;2022-07-23T02:23:23;1.70;;;1.30;;
64335;SDS011;50672;53.362;-6.240;2022-07-23T02:25:49;1.57;;;1.30;;
64335;SDS011;50672;53.362;-6.240;2022-07-23T02:28:16;1.40;;;1.30;;
64335;SDS011;50672;53.362;-6.240;2022-07-23T02:30:43;3.67;;;1.40;;
64335;SDS011;50672;53.362;-6.240;2022-07-23T02:33:10;2.53;;;1.30;;
64335;SDS011;50672;53.362;-6.240;2022-07-23T02:35:37;2.17;;;1.37;;
64335;SDS011;50672;53.362;-6.240;2022-07-23T02:38:04;1.70;;;1.40;;
64335;SDS011;50672;53.362;-6.240;2022-07-23T02:40:30;2.53;;;1.83;;
64335;SDS011;50672;53.362;-6.240;2022-07-23T02:42:57;2.63;;;1.40;;
64335;SDS011;50672;53.362;-6.240;2022-07-23T02:45:24;3.30;;;1.40;;
64335;SDS011;50672;53.362;-6.240;2022-07-23T02:47:51;2.77;;;1.30;;
64335;SDS011;50672;53.362;-6.240;2022-07-23T02:50:18;1.30;;;1.20;;
64335;SDS011;50672;53.362;-6.240;2022-07-23T02:52:46;6.10;;;1.93;;
64335;SDS011;50672;53.362;-6.240;2022-07-23T02:55:13;2.00;;;1.27;;
64335;SDS011;50672;53.362;-6.240;2022-07-23T02:57:39;1.50;;;1.20;;
64335;SDS011;50672;53.362;-6.240;2022-07-23T03:00:07;3.17;;;1.20;;
64335;SDS011;50672;53.362;-6.240;2022-07-23T03:02:35;2.00;;;1.33;;
64335;SDS011;50672;53.362;-6.240;2022-07-23T03:05:01;1.27;;;1.10;;
64335;SDS011;50672;53.362;-6.240;2022-07-23T03:07:28;1.23;;;1.13;;
64335;SDS011;50672;53.362;-6.240;2022-07-23T03:09:55;2.40;;;1.43;;
64335;SDS011;50672;53.362;-6.240;2022-07-23T03:12:22;2.53;;;1.47;;
64335;SDS011;50672;53.362;-6.240;2022-07-23T03:14:50;2.17;;;1.40;;
64335;SDS011;50672;53.362;-6.240;2022-07-23T03:17:17;1.87;;;1.33;;
64335;SDS011;50672;53.362;-6.240;2022-07-23T03:19:43;2.23;;;1.50;;
64335;SDS011;50672;53.362;-6.240;2022-07-23T03:22:10;3.27;;;1.70;;
64335;SDS011;50672;53.362;-6.240;2022-07-23T03:24:38;2.87;;;2.07;;
64335;SDS011;50672;53.362;-6.240;2022-07-23T03:27:23;3.40;;;1.90;;
64335;SDS011;50672;53.362;-6.240;2022-07-23T03:29:52;3.27;;;1.80;;
64335;SDS011;50672;53.362;-6.240;2022-07-23T03:32:20;4.33;;;2.43;;
64335;SDS011;50672;53.362;-6.240;2022-07-23T03:34:48;3.97;;;2.33;;
64335;SDS011;50672;53.362;-6.240;2022-07-23T03:37:16;4.20;;;2.17;;
64335;SDS011;50672;53.362;-6.240;2022-07-23T03:39:44;2.33;;;2.13;;
64335;SDS011;50672;53.362;-6.240;2022-07-23T03:42:10;4.00;;;2.10;;
64335;SDS011;50672;53.362;-6.240;2022-07-23T03:44:37;2.90;;;2.10;;
64335;SDS011;50672;53.362;-6.240;2022-07-23T03:47:05;2.47;;;2.03;;
64335;SDS011;50672;53.362;-6.240;2022-07-23T03:49:32;3.30;;;2.27;;
64335;SDS011;50672;53.362;-6.240;2022-07-23T03:51:59;5.57;;;2.30;;
64335;SDS011;50672;53.362;-6.240;2022-07-23T03:54:27;2.67;;;2.30;;
64335;SDS011;50672;53.362;-6.240;2022-07-23T03:56:54;3.90;;;2.40;;
64335;SDS011;50672;53.362;-6.240;2022-07-23T03:59:20;5.23;;;2.40;;
64335;SDS011;50672;53.362;-6.240;2022-07-23T04:01:49;5.20;;;3.00;;
64335;SDS011;50672;53.362;-6.240;2022-07-23T04:04:18;5.67;;;2.60;;
64335;SDS011;50672;53.362;-6.240;2022-07-23T04:06:45;5.17;;;2.47;;
64335;SDS011;50672;53.362;-6.240;2022-07-23T04:09:12;5.30;;;2.50;;
64335;SDS011;50672;53.362;-6.240;2022-07-23T04:11:39;7.00;;;3.20;;
64335;SDS011;50672;53.362;-6.240;2022-07-23T04:14:06;4.97;;;3.80;;
64335;SDS011;50672;53.362;-6.240;2022-07-23T04:16:33;4.87;;;3.20;;
64335;SDS011;50672;53.362;-6.240;2022-07-23T04:19:00;4.07;;;3.07;;
64335;SDS011;50672;53.362;-6.240;2022-07-23T04:21:28;4.13;;;2.50;;
64335;SDS011;50672;53.362;-6.240;2022-07-23T04:23:54;5.10;;;2.60;;
64335;SDS011;50672;53.362;-6.240;2022-07-23T04:26:21;3.70;;;3.00;;
64335;SDS011;50672;53.362;-6.240;2022-07-23T04:28:48;5.20;;;2.63;;
64335;SDS011;50672;53.362;-6.240;2022-07-23T04:31:15;5.23;;;2.70;;
64335;SDS011;50672;53.362;-6.240;2022-07-23T04:33:42;4.47;;;3.03;;
64335;SDS011;50672;53.362;-6.240;2022-07-23T04:36:09;5.00;;;3.20;;
64335;SDS011;50672;53.362;-6.240;2022-07-23T04:38:36;5.47;;;2.87;;
64335;SDS011;50672;53.362;-6.240;2022-07-23T04:41:03;3.83;;;2.80;;
64335;SDS011;50672;53.362;-6.240;2022-07-23T04:43:30;4.93;;;3.00;;
64335;SDS011;50672;53.362;-6.240;2022-07-23T04:45:56;4.17;;;2.97;;
64335;SDS011;50672;53.362;-6.240;2022-07-23T04:48:24;7.30;;;3.00;;
64335;SDS011;50672;53.362;-6.240;2022-07-23T04:50:53;8.07;;;2.90;;
64335;SDS011;50672;53.362;-6.240;2022-07-23T04:53:20;4.77;;;3.00;;
64335;SDS011;50672;53.362;-6.240;2022-07-23T04:55:47;4.83;;;3.03;;
64335;SDS011;50672;53.362;-6.240;2022-07-23T04:58:16;8.03;;;3.13;;
64335;SDS011;50672;53.362;-6.240;2022-07-23T05:00:42;4.83;;;3.07;;
64335;SDS011;50672;53.362;-6.240;2022-07-23T05:03:10;3.23;;;2.93;;
64335;SDS011;50672;53.362;-6.240;2022-07-23T05:05:38;5.93;;;4.07;;
64335;SDS011;50672;53.362;-6.240;2022-07-23T05:08:05;3.83;;;2.93;;
64335;SDS011;50672;53.362;-6.240;2022-07-23T05:10:33;4.77;;;3.37;;
64335;SDS011;50672;53.362;-6.240;2022-07-23T05:13:02;4.40;;;3.13;;
64335;SDS011;50672;53.362;-6.240;2022-07-23T05:15:32;4.70;;;3.13;;
64335;SDS011;50672;53.362;-6.240;2022-07-23T05:17:59;3.67;;;3.30;;
64335;SDS011;50672;53.362;-6.240;2022-07-23T05:20:27;5.50;;;3.97;;
64335;SDS011;50672;53.362;-6.240;2022-07-23T05:22:55;6.33;;;3.27;;
64335;SDS011;50672;53.362;-6.240;2022-07-23T05:25:23;6.27;;;3.50;;
64335;SDS011;50672;53.362;-6.240;2022-07-23T05:27:50;5.13;;;3.70;;
64335;SDS011;50672;53.362;-6.240;2022-07-23T05:30:17;5.17;;;4.03;;
64335;SDS011;50672;53.362;-6.240;2022-07-23T05:32:46;4.50;;;3.10;;
64335;SDS011;50672;53.362;-6.240;2022-07-23T05:35:15;5.23;;;3.23;;
64335;SDS011;50672;53.362;-6.240;2022-07-23T05:37:44;6.97;;;3.60;;
64335;SDS011;50672;53.362;-6.240;2022-07-23T05:40:11;6.17;;;3.53;;
64335;SDS011;50672;53.362;-6.240;2022-07-23T05:42:39;6.43;;;3.87;;
64335;SDS011;50672;53.362;-6.240;2022-07-23T05:45:10;6.57;;;4.90;;
64335;SDS011;50672;53.362;-6.240;2022-07-23T05:47:44;6.70;;;3.97;;
64335;SDS011;50672;53.362;-6.240;2022-07-23T05:50:12;3.90;;;2.80;;
64335;SDS011;50672;53.362;-6.240;2022-07-23T05:52:41;6.97;;;2.93;;
64335;SDS011;50672;53.362;-6.240;2022-07-23T05:55:09;6.73;;;3.07;;
64335;SDS011;50672;53.362;-6.240;2022-07-23T05:57:36;4.77;;;2.60;;
64335;SDS011;50672;53.362;-6.240;2022-07-23T06:00:04;5.97;;;3.60;;
64335;SDS011;50672;53.362;-6.240;2022-07-23T06:02:32;4.20;;;2.73;;
64335;SDS011;50672;53.362;-6.240;2022-07-23T06:05:01;5.33;;;2.90;;
64335;SDS011;50672;53.362;-6.240;2022-07-23T06:07:29;3.77;;;2.67;;
64335;SDS011;50672;53.362;-6.240;2022-07-23T06:09:56;4.37;;;2.63;;
64335;SDS011;50672;53.362;-6.240;2022-07-23T06:12:26;4.33;;;3.10;;
64335;SDS011;50672;53.362;-6.240;2022-07-23T06:14:54;6.33;;;2.83;;
64335;SDS011;50672;53.362;-6.240;2022-07-23T06:17:21;6.83;;;3.77;;
64335;SDS011;50672;53.362;-6.240;2022-07-23T06:19:51;4.03;;;2.50;;
64335;SDS011;50672;53.362;-6.240;2022-07-23T06:22:18;4.80;;;3.00;;
64335;SDS011;50672;53.362;-6.240;2022-07-23T06:24:45;7.60;;;2.77;;
64335;SDS011;50672;53.362;-6.240;2022-07-23T06:27:13;4.83;;;2.70;;
64335;SDS011;50672;53.362;-6.240;2022-07-23T06:29:40;4.60;;;2.47;;
64335;SDS011;50672;53.362;-6.240;2022-07-23T06:32:07;4.03;;;2.63;;
64335;SDS011;50672;53.362;-6.240;2022-07-23T06:34:34;8.43;;;4.47;;
64335;SDS011;50672;53.362;-6.240;2022-07-23T06:37:01;7.77;;;4.53;;
64335;SDS011;50672;53.362;-6.240;2022-07-23T06:39:28;9.67;;;4.90;;
64335;SDS011;50672;53.362;-6.240;2022-07-23T06:41:55;10.20;;;4.50;;
64335;SDS011;50672;53.362;-6.240;2022-07-23T06:44:26;7.57;;;4.50;;
64335;SDS011;50672;53.362;-6.240;2022-07-23T06:46:53;8.20;;;4.00;;
64335;SDS011;50672;53.362;-6.240;2022-07-23T06:49:20;7.90;;;3.67;;
64335;SDS011;50672;53.362;-6.240;2022-07-23T06:51:47;6.80;;;3.43;;
64335;SDS011;50672;53.362;-6.240;2022-07-23T06:54:14;10.67;;;4.50;;
64335;SDS011;50672;53.362;-6.240;2022-07-23T06:56:41;6.27;;;3.93;;
64335;SDS011;50672;53.362;-6.240;2022-07-23T06:59:09;4.63;;;3.37;;
64335;SDS011;50672;53.362;-6.240;2022-07-23T07:01:35;6.75;;;3.63;;
64335;SDS011;50672;53.362;-6.240;2022-07-23T07:04:03;15.17;;;4.27;;
64335;SDS011;50672;53.362;-6.240;2022-07-23T07:06:30;4.33;;;3.00;;
64335;SDS011;50672;53.362;-6.240;2022-07-23T07:08:56;5.40;;;3.47;;
64335;SDS011;50672;53.362;-6.240;2022-07-23T07:11:24;3.60;;;2.80;;
64335;SDS011;50672;53.362;-6.240;2022-07-23T07:13:51;4.50;;;3.57;;
64335;SDS011;50672;53.362;-6.240;2022-07-23T07:16:18;5.33;;;3.27;;
64335;SDS011;50672;53.362;-6.240;2022-07-23T07:18:45;6.57;;;3.80;;
64335;SDS011;50672;53.362;-6.240;2022-07-23T07:21:12;6.07;;;3.90;;
64335;SDS011;50672;53.362;-6.240;2022-07-23T07:23:39;4.92;;;3.22;;
64335;SDS011;50672;53.362;-6.240;2022-07-23T07:26:06;4.80;;;4.30;;
64335;SDS011;50672;53.362;-6.240;2022-07-23T07:28:33;7.37;;;4.33;;
64335;SDS011;50672;53.362;-6.240;2022-07-23T07:31:00;5.53;;;4.30;;
64335;SDS011;50672;53.362;-6.240;2022-07-23T07:33:28;8.70;;;4.10;;
64335;SDS011;50672;53.362;-6.240;2022-07-23T07:35:55;6.50;;;3.97;;
64335;SDS011;50672;53.362;-6.240;2022-07-23T07:38:22;5.13;;;4.13;;
64335;SDS011;50672;53.362;-6.240;2022-07-23T07:40:49;5.57;;;3.33;;
64335;SDS011;50672;53.362;-6.240;2022-07-23T08:03:12;7.67;;;4.80;;
64335;SDS011;50672;53.362;-6.240;2022-07-23T08:05:39;6.30;;;4.13;;
64335;SDS011;50672;53.362;-6.240;2022-07-23T08:08:06;6.73;;;4.43;;
64335;SDS011;50672;53.362;-6.240;2022-07-23T08:10:35;9.63;;;5.33;;
64335;SDS011;50672;53.362;-6.240;2022-07-23T08:13:02;7.93;;;5.47;;
64335;SDS011;50672;53.362;-6.240;2022-07-23T08:15:30;9.20;;;4.73;;
64335;SDS011;50672;53.362;-6.240;2022-07-23T08:17:57;6.07;;;4.43;;
64335;SDS011;50672;53.362;-6.240;2022-07-23T08:20:25;7.43;;;5.43;;
64335;SDS011;50672;53.362;-6.240;2022-07-23T08:22:55;7.97;;;4.87;;
64335;SDS011;50672;53.362;-6.240;2022-07-23T08:25:24;9.93;;;5.40;;
64335;SDS011;50672;53.362;-6.240;2022-07-23T08:27:56;7.20;;;4.88;;
64335;SDS011;50672;53.362;-6.240;2022-07-23T08:30:24;8.53;;;4.83;;
64335;SDS011;50672;53.362;-6.240;2022-07-23T08:32:56;8.27;;;5.27;;
64335;SDS011;50672;53.362;-6.240;2022-07-23T08:37:56;7.93;;;4.67;;
64335;SDS011;50672;53.362;-6.240;2022-07-23T08:40:24;9.43;;;4.50;;
64335;SDS011;50672;53.362;-6.240;2022-07-23T08:42:53;8.07;;;4.53;;
64335;SDS011;50672;53.362;-6.240;2022-07-23T08:45:21;6.70;;;3.97;;
64335;SDS011;50672;53.362;-6.240;2022-07-23T08:47:56;5.40;;;3.80;;
64335;SDS011;50672;53.362;-6.240;2022-07-23T08:50:31;4.00;;;2.63;;
64335;SDS011;50672;53.362;-6.240;2022-07-23T08:53:02;3.67;;;2.70;;
64335;SDS011;50672;53.362;-6.240;2022-07-23T08:55:32;3.10;;;2.80;;
64335;SDS011;50672;53.362;-6.240;2022-07-23T08:57:59;3.57;;;2.03;;
64335;SDS011;50672;53.362;-6.240;2022-07-23T09:00:27;4.43;;;3.10;;
64335;SDS011;50672;53.362;-6.240;2022-07-23T09:02:54;8.67;;;4.17;;
64335;SDS011;50672;53.362;-6.240;2022-07-23T09:05:21;6.23;;;4.03;;
64335;SDS011;50672;53.362;-6.240;2022-07-23T09:10:42;7.30;;;4.07;;
64335;SDS011;50672;53.362;-6.240;2022-07-23T09:15:51;9.97;;;5.30;;
64335;SDS011;50672;53.362;-6.240;2022-07-23T09:18:27;10.50;;;4.83;;
64335;SDS011;50672;53.362;-6.240;2022-07-23T09:23:40;11.87;;;5.07;;
64335;SDS011;50672;53.362;-6.240;2022-07-23T09:26:19;10.53;;;5.27;;
64335;SDS011;50672;53.362;-6.240;2022-07-23T09:28:53;13.13;;;5.33;;
64335;SDS011;50672;53.362;-6.240;2022-07-23T09:31:25;9.97;;;5.23;;
64335;SDS011;50672;53.362;-6.240;2022-07-23T09:36:35;14.03;;;5.47;;
64335;SDS011;50672;53.362;-6.240;2022-07-23T09:39:02;8.50;;;4.23;;
64335;SDS011;50672;53.362;-6.240;2022-07-23T09:41:33;13.60;;;4.97;;
64335;SDS011;50672;53.362;-6.240;2022-07-23T09:44:12;9.38;;;4.03;;
64335;SDS011;50672;53.362;-6.240;2022-07-23T09:46:40;7.30;;;5.10;;
64335;SDS011;50672;53.362;-6.240;2022-07-23T09:49:26;9.77;;;4.30;;
64335;SDS011;50672;53.362;-6.240;2022-07-23T09:51:56;5.27;;;3.13;;
64335;SDS011;50672;53.362;-6.240;2022-07-23T09:54:34;4.00;;;2.20;;
64335;SDS011;50672;53.362;-6.240;2022-07-23T09:57:12;4.60;;;2.33;;
64335;SDS011;50672;53.362;-6.240;2022-07-23T09:59:44;4.03;;;1.70;;
64335;SDS011;50672;53.362;-6.240;2022-07-23T10:02:13;1.43;;;1.17;;
64335;SDS011;50672;53.362;-6.240;2022-07-23T10:04:41;1.70;;;1.33;;
64335;SDS011;50672;53.362;-6.240;2022-07-23T10:07:10;2.33;;;1.00;;
64335;SDS011;50672;53.362;-6.240;2022-07-23T10:09:38;2.17;;;1.20;;
64335;SDS011;50672;53.362;-6.240;2022-07-23T10:12:10;1.60;;;1.30;;
64335;SDS011;50672;53.362;-6.240;2022-07-23T10:14:51;2.30;;;1.17;;
64335;SDS011;50672;53.362;-6.240;2022-07-23T10:17:18;3.40;;;1.40;;
64335;SDS011;50672;53.362;-6.240;2022-07-23T10:19:45;2.20;;;1.00;;
64335;SDS011;50672;53.362;-6.240;2022-07-23T10:22:14;2.40;;;1.23;;
64335;SDS011;50672;53.362;-6.240;2022-07-23T10:34:19;2.20;;;1.20;;
64335;SDS011;50672;53.362;-6.240;2022-07-23T10:36:18;1.90;;;1.23;;
64335;SDS011;50672;53.362;-6.240;2022-07-23T10:38:56;1.50;;;1.20;;
64335;SDS011;50672;53.362;-6.240;2022-07-23T10:41:43;2.27;;;1.20;;
64335;SDS011;50672;53.362;-6.240;2022-07-23T10:44:10;1.47;;;0.70;;
64335;SDS011;50672;53.362;-6.240;2022-07-23T10:46:58;2.50;;;1.00;;
64335;SDS011;50672;53.362;-6.240;2022-07-23T10:49:44;1.33;;;0.97;;
64335;SDS011;50672;53.362;-6.240;2022-07-23T10:54:41;2.40;;;1.20;;
64335;SDS011;50672;53.362;-6.240;2022-07-23T10:57:10;2.37;;;1.13;;
64335;SDS011;50672;53.362;-6.240;2022-07-23T11:02:48;4.93;;;1.37;;
64335;SDS011;50672;53.362;-6.240;2022-07-23T11:05:21;1.97;;;1.40;;
64335;SDS011;50672;53.362;-6.240;2022-07-23T11:10:37;2.03;;;1.30;;
64335;SDS011;50672;53.362;-6.240;2022-07-23T11:16:41;2.90;;;1.30;;
64335;SDS011;50672;53.362;-6.240;2022-07-23T11:21:44;1.63;;;1.10;;
64335;SDS011;50672;53.362;-6.240;2022-07-23T11:24:04;2.73;;;1.40;;
64335;SDS011;50672;53.362;-6.240;2022-07-23T11:37:09;2.10;;;1.10;;
64335;SDS011;50672;53.362;-6.240;2022-07-23T11:39:38;1.57;;;1.00;;
64335;SDS011;50672;53.362;-6.240;2022-07-23T11:42:06;1.77;;;1.20;;
64335;SDS011;50672;53.362;-6.240;2022-07-23T11:44:37;1.53;;;1.20;;
64335;SDS011;50672;53.362;-6.240;2022-07-23T11:47:09;1.83;;;1.55;;
64335;SDS011;50672;53.362;-6.240;2022-07-23T11:49:36;0.90;;;0.80;;
64335;SDS011;50672;53.362;-6.240;2022-07-23T11:52:06;1.70;;;0.90;;
64335;SDS011;50672;53.362;-6.240;2022-07-23T11:54:36;2.72;;;1.00;;
64335;SDS011;50672;53.362;-6.240;2022-07-23T11:57:13;0.82;;;0.82;;
64335;SDS011;50672;53.362;-6.240;2022-07-23T11:59:40;0.80;;;0.80;;
64335;SDS011;50672;53.362;-6.240;2022-07-23T12:02:09;1.30;;;1.20;;
64335;SDS011;50672;53.362;-6.240;2022-07-23T12:04:43;0.85;;;0.80;;
64335;SDS011;50672;53.362;-6.240;2022-07-23T12:09:51;0.93;;;0.93;;
64335;SDS011;50672;53.362;-6.240;2022-07-23T12:12:18;1.13;;;1.00;;
64335;SDS011;50672;53.362;-6.240;2022-07-23T12:14:52;0.90;;;0.90;;
64335;SDS011;50672;53.362;-6.240;2022-07-23T12:17:20;0.93;;;0.80;;
64335;SDS011;50672;53.362;-6.240;2022-07-23T12:19:48;1.10;;;1.00;;
64335;SDS011;50672;53.362;-6.240;2022-07-23T12:22:15;1.30;;;1.08;;
64335;SDS011;50672;53.362;-6.240;2022-07-23T12:25:02;1.27;;;1.20;;
64335;SDS011;50672;53.362;-6.240;2022-07-23T12:27:31;0.75;;;0.75;;
64335;SDS011;50672;53.362;-6.240;2022-07-23T12:29:58;1.05;;;0.95;;
64335;SDS011;50672;53.362;-6.240;2022-07-23T12:32:26;1.08;;;1.00;;
64335;SDS011;50672;53.362;-6.240;2022-07-23T12:35:04;0.95;;;0.95;;
64335;SDS011;50672;53.362;-6.240;2022-07-23T12:37:37;1.35;;;1.15;;
64335;SDS011;50672;53.362;-6.240;2022-07-23T12:40:18;1.27;;;1.20;;
64335;SDS011;50672;53.362;-6.240;2022-07-23T12:42:48;1.27;;;1.17;;
64335;SDS011;50672;53.362;-6.240;2022-07-23T12:45:17;1.00;;;1.00;;
64335;SDS011;50672;53.362;-6.240;2022-07-23T12:47:58;2.22;;;1.42;;
64335;SDS011;50672;53.362;-6.240;2022-07-23T12:53:17;2.30;;;1.20;;
64335;SDS011;50672;53.362;-6.240;2022-07-23T12:55:50;1.08;;;1.08;;
64335;SDS011;50672;53.362;-6.240;2022-07-23T13:01:33;0.90;;;0.90;;
64335;SDS011;50672;53.362;-6.240;2022-07-23T13:04:08;1.27;;;0.85;;
64335;SDS011;50672;53.362;-6.240;2022-07-23T13:09:16;0.80;;;0.80;;
64335;SDS011;50672;53.362;-6.240;2022-07-23T13:11:45;0.70;;;0.70;;
64335;SDS011;50672;53.362;-6.240;2022-07-23T13:14:14;1.55;;;0.70;;
64335;SDS011;50672;53.362;-6.240;2022-07-23T13:16:42;1.38;;;0.60;;
64335;SDS011;50672;53.362;-6.240;2022-07-23T13:19:09;0.65;;;0.60;;
64335;SDS011;50672;53.362;-6.240;2022-07-23T13:21:38;1.42;;;0.80;;
64335;SDS011;50672;53.362;-6.240;2022-07-23T13:24:06;1.23;;;0.80;;
64335;SDS011;50672;53.362;-6.240;2022-07-23T13:26:35;1.42;;;0.80;;
64335;SDS011;50672;53.362;-6.240;2022-07-23T13:29:03;1.30;;;1.20;;
64335;SDS011;50672;53.362;-6.240;2022-07-23T13:31:35;1.83;;;0.80;;
64335;SDS011;50672;53.362;-6.240;2022-07-23T13:34:04;0.85;;;0.60;;
64335;SDS011;50672;53.362;-6.240;2022-07-23T13:36:33;1.27;;;0.68;;
64335;SDS011;50672;53.362;-6.240;2022-07-23T13:39:01;2.47;;;0.68;;
64335;SDS011;50672;53.362;-6.240;2022-07-23T13:41:30;1.70;;;0.60;;
64335;SDS011;50672;53.362;-6.240;2022-07-23T13:43:56;1.40;;;0.82;;
64335;SDS011;50672;53.362;-6.240;2022-07-23T13:46:24;1.10;;;0.98;;
64335;SDS011;50672;53.362;-6.240;2022-07-23T13:48:52;2.92;;;0.77;;
64335;SDS011;50672;53.362;-6.240;2022-07-23T13:51:19;2.30;;;0.88;;
64335;SDS011;50672;53.362;-6.240;2022-07-23T13:53:49;2.88;;;1.13;;
64335;SDS011;50672;53.362;-6.240;2022-07-23T13:56:16;4.43;;;1.00;;
64335;SDS011;50672;53.362;-6.240;2022-07-23T13:58:43;4.00;;;0.90;;
64335;SDS011;50672;53.362;-6.240;2022-07-23T14:01:10;1.38;;;1.10;;
64335;SDS011;50672;53.362;-6.240;2022-07-23T14:03:37;2.50;;;1.10;;
64335;SDS011;50672;53.362;-6.240;2022-07-23T14:06:05;3.67;;;1.40;;
64335;SDS011;50672;53.362;-6.240;2022-07-23T14:08:42;2.55;;;1.20;;
64335;SDS011;50672;53.362;-6.240;2022-07-23T14:11:11;2.33;;;1.55;;
64335;SDS011;50672;53.362;-6.240;2022-07-23T14:13:39;1.88;;;1.20;;
64335;SDS011;50672;53.362;-6.240;2022-07-23T14:16:06;4.30;;;1.10;;
64335;SDS011;50672;53.362;-6.240;2022-07-23T14:18:33;5.55;;;1.10;;
64335;SDS011;50672;53.362;-6.240;2022-07-23T14:21:01;3.92;;;1.13;;
64335;SDS011;50672;53.362;-6.240;2022-07-23T14:23:28;2.63;;;1.67;;
64335;SDS011;50672;53.362;-6.240;2022-07-23T14:25:56;1.90;;;1.27;;
64335;SDS011;50672;53.362;-6.240;2022-07-23T14:28:23;4.57;;;1.25;;
64335;SDS011;50672;53.362;-6.240;2022-07-23T14:30:50;2.38;;;1.25;;
64335;SDS011;50672;53.362;-6.240;2022-07-23T14:33:18;2.75;;;0.95;;
64335;SDS011;50672;53.362;-6.240;2022-07-23T14:35:47;3.17;;;1.80;;
64335;SDS011;50672;53.362;-6.240;2022-07-23T14:38:13;1.48;;;1.10;;
64335;SDS011;50672;53.362;-6.240;2022-07-23T14:40:41;2.72;;;1.00;;
64335;SDS011;50672;53.362;-6.240;2022-07-23T14:43:08;1.75;;;1.00;;
64335;SDS011;50672;53.362;-6.240;2022-07-23T14:45:36;1.33;;;0.93;;
64335;SDS011;50672;53.362;-6.240;2022-07-23T14:48:04;1.33;;;0.90;;
64335;SDS011;50672;53.362;-6.240;2022-07-23T14:50:31;1.20;;;1.10;;
64335;SDS011;50672;53.362;-6.240;2022-07-23T14:52:58;1.05;;;0.82;;
64335;SDS011;50672;53.362;-6.240;2022-07-23T14:55:25;1.40;;;0.60;;
64335;SDS011;50672;53.362;-6.240;2022-07-23T14:57:52;0.70;;;0.70;;
64335;SDS011;50672;53.362;-6.240;2022-07-23T15:00:19;0.82;;;0.60;;
64335;SDS011;50672;53.362;-6.240;2022-07-23T15:02:49;0.60;;;0.60;;
64335;SDS011;50672;53.362;-6.240;2022-07-23T15:07:48;7.97;;;7.13;;
64335;SDS011;50672;53.362;-6.240;2022-07-23T15:10:16;1.25;;;0.88;;
64335;SDS011;50672;53.362;-6.240;2022-07-23T15:12:47;1.42;;;1.42;;
64335;SDS011;50672;53.362;-6.240;2022-07-23T15:15:15;1.55;;;1.48;;
64335;SDS011;50672;53.362;-6.240;2022-07-23T15:17:43;2.50;;;0.93;;
64335;SDS011;50672;53.362;-6.240;2022-07-23T15:20:10;1.50;;;1.40;;
64335;SDS011;50672;53.362;-6.240;2022-07-23T15:22:36;0.93;;;0.93;;
64335;SDS011;50672;53.362;-6.240;2022-07-23T15:25:04;0.88;;;0.80;;
64335;SDS011;50672;53.362;-6.240;2022-07-23T15:27:32;1.00;;;1.00;;
64335;SDS011;50672;53.362;-6.240;2022-07-23T15:30:00;0.90;;;0.90;;
64335;SDS011;50672;53.362;-6.240;2022-07-23T15:32:26;0.70;;;0.70;;
64335;SDS011;50672;53.362;-6.240;2022-07-23T15:34:53;1.80;;;1.17;;
64335;SDS011;50672;53.362;-6.240;2022-07-23T15:37:21;1.10;;;1.10;;
64335;SDS011;50672;53.362;-6.240;2022-07-23T15:39:52;1.00;;;1.00;;
64335;SDS011;50672;53.362;-6.240;2022-07-23T15:42:19;1.40;;;1.30;;
64335;SDS011;50672;53.362;-6.240;2022-07-23T15:44:46;0.80;;;0.80;;
64335;SDS011;50672;53.362;-6.240;2022-07-23T15:47:14;0.70;;;0.70;;
64335;SDS011;50672;53.362;-6.240;2022-07-23T15:49:42;1.50;;;0.70;;
64335;SDS011;50672;53.362;-6.240;2022-07-23T15:52:10;1.05;;;0.73;;
64335;SDS011;50672;53.362;-6.240;2022-07-23T15:54:38;1.00;;;1.00;;
64335;SDS011;50672;53.362;-6.240;2022-07-23T15:57:06;1.02;;;0.93;;
64335;SDS011;50672;53.362;-6.240;2022-07-23T15:59:34;1.63;;;1.50;;
64335;SDS011;50672;53.362;-6.240;2022-07-23T16:02:00;1.10;;;1.10;;